Tiempo atmosférico en la estación meteorológica de Martinet, Lleida (1038 m.)



Fecha
DESCASC
Temp. máxima en grados centígrados (hora)
DESCASC
Temp. mínima en grados centígrados (hora)
DESCASC
Temp. media en grados centígrados
DESCASC
Racha de viento máxima en m/sg (hora)
DESCASC
Velocidad máxima media en intervalos de 10 minutos(hora)
DESCASC
Precipitaciones diarias en mm
DESCASC
Precipitaciones de 00:00 a 06:00 en mm
DESCASC
Precipitaciones de 06:00 a 12:00 en mm
DESCASC
Precipitaciones de 12:00 a 18:00 en mm
DESCASC
Precipitaciones de 18:00 a 24:00 en mm
DESCASC
10-11-2019 10.6 (14:10) -0.6 (-00:0) 5 9.44 (18:30) 5.28 (18:30) 0.2 0.2 0 0 0
09-11-2019 11.6 (15:30) 0.5 (00:00) 6.1 10.56 (04:20) 5.56 (04:30) 0 0 0 0 0
08-11-2019 8.7 (13:30) 0.8 (00:00) 4.7 9.72 (15:50) 4.72 (13:50) 0.4 0 0 0.4 0
07-11-2019 8.5 (15:00) -2 (-00:0) 3.3 11.11 (16:00) 4.72 (16:00) 2.4 0 0.4 0.2 1.8
06-11-2019 12 (15:20) -0.8 (-00:0) 5.6 8.61 (15:30) 5 (15:50) 0 0 0 0 0
05-11-2019 11.5 (14:20) 1.6 (00:00) 6.6 10 (16:10) 4.72 (11:40) 0.2 0.2 0 0 0
04-11-2019 14.6 (12:40) 0.9 (00:00) 7.8 11.11 (21:50) 5.28 (21:50) 5.8 0 0 0 5.8
03-11-2019 14.8 (14:10) 2.5 (00:00) 8.7 12.78 (03:00) 7.22 (14:50) 11.4 4.8 6.6 0 0
02-11-2019 14.3 (13:50) 7.1 (00:00) 10.7 6.67 (22:30) 2.78 (22:30) 4.8 4.4 0 0 0.4
01-11-2019 15.8 (15:50) 1.8 (00:00) 8.8 4.72 (10:20) 2.78 (10:20) 10.8 0 0 0 10.8
31-10-2019 16.9 (15:30) 4.3 (23:59) 10.6 5.83 (11:10) 3.89 (11:20) 0.4 0 0.4 0 0
30-10-2019 20 (14:50) 3 (00:00) 11.5 7.78 (14:50) 3.61 (14:30) 0 0 0 0 0
29-10-2019 20.8 (15:40) 3.7 (00:00) 12.2 5.56 (15:20) 2.78 (15:00) 0 0 0 0 0
28-10-2019 15.3 (15:00) 5.3 (00:00) 10.3 4.44 (17:00) 2.5 (10:30) 0 0 0 0 0
27-10-2019 20.1 (15:00) 2 (00:00) 11.1 7.78 (15:10) 3.33 (15:10) 0 0 0 0 0
26-10-2019 20.6 (16:10) 0.3 (00:00) 10.5 5.28 (14:40) 2.78 (14:40) 0 0 0 0 0
25-10-2019 20.1 (16:40) 1.9 (00:00) 11 5.83 (15:20) 3.61 (11:30) 0 0 0 0 0
24-10-2019 15.6 (16:20) 4.2 (00:00) 9.9 6.11 (05:30) 3.61 (05:20) 0.2 0 0.2 0 0
23-10-2019 14 (13:30) 7 (00:00) 10.5 11.67 (06:20) 6.94 (06:20) 44.2 40.6 1.4 0 2.2
22-10-2019 15.7 (21:50) 4.5 (00:00) 10.1 14.17 (23:30) 6.11 (23:30) 50.6 0 7.8 23 19.8
21-10-2019 14.3 (15:50) 2.3 (00:00) 8.3 6.94 (16:30) 3.61 (16:10) 0 0 0 0 0
20-10-2019 12.4 (10:30) 5.7 (00:00) 9 8.89 (15:50) 3.61 (16:00) 27.6 1.8 16 9.4 0.4
19-10-2019 18.4 (15:00) 7.7 (00:00) 13 9.72 (15:20) 4.17 (15:50) 0 0 0 0 0
18-10-2019 19.6 (15:50) 4.1 (00:00) 11.9 6.94 (15:30) 3.61 (10:40) 0 0 0 0 0
17-10-2019 20.6 (16:10) 2.6 (00:00) 11.6 9.72 (15:40) 4.44 (15:30) 0 0 0 0 0
16-10-2019 17.7 (15:00) 1.4 (00:00) 9.6 9.17 (12:50) 4.72 (12:50) 0 0 0 0 0
15-10-2019 17.9 (16:10) 5.4 (00:00) 11.6 7.22 (14:40) 3.89 (15:00) 2.8 2.8 0 0 0
14-10-2019 24.3 (13:40) 8.2 (00:00) 16.2 11.39 (14:40) 5.83 (14:30) 14.2 0 0 3.6 10.6

Gráficas

Temp. máximas Temp. mínimas Temp. medias Precipitaciones Rachas de viento máximas Velocidades máximas media en intervalos de 10 minutos

Datos horarios

Fecha y hora oficial Temperatura (ºC) Velocidad del viento (km/h) Dirección del viento Racha (km/h) Dirección de racha Precipitación (mm) Presión (hPa) Tendencia (hPa) Humedad (%)
2019-11-12 23:00:00 0.1 0 Calma 4 Sudoeste 0 -- -- 82
2019-11-12 22:00:00 1.3 0 Calma 6 Nordeste 0 -- -- 76
2019-11-12 21:00:00 2 2 Noroeste 6 Norte 0 -- -- 74
2019-11-12 20:00:00 2.9 2 Este 9 Este 0 -- -- 69
2019-11-12 19:00:00 4.7 3 Oeste 10 Norte 0 -- -- 63
2019-11-12 18:00:00 7.2 4 Norte 21 Sudoeste 0 -- -- 50
2019-11-12 17:00:00 8.6 9 Sudoeste 36 Oeste 0 -- -- 45
2019-11-12 16:00:00 11.4 11 Oeste 48 Oeste 0 -- -- 37
2019-11-12 15:00:00 12.6 10 Sudoeste 42 Oeste 0 -- -- 33
2019-11-12 14:00:00 12.7 11 Oeste 26 Oeste 0 -- -- 32
2019-11-12 13:00:00 11.8 5 Sur 16 Este 0 -- -- 38
2019-11-12 12:00:00 7.8 5 Este 15 Este 0 -- -- 47
2019-11-12 11:00:00 4.5 3 Sur 5 Sudeste 0 -- -- 59
2019-11-12 10:00:00 -0.1 2 Este 5 Norte 0 -- -- 85
2019-11-12 09:00:00 -2.5 3 Oeste 8 Noroeste 0 -- -- 93
2019-11-12 08:00:00 -3.1 2 Sudeste 10 Norte 0 -- -- 91
2019-11-12 07:00:00 -2.6 2 Norte 6 Nordeste 0 -- -- 87
2019-11-12 06:00:00 -2.4 2 Oeste 4 Este 0 -- -- 90
2019-11-12 05:00:00 -2.3 3 Este 9 Norte 0 -- -- 89
2019-11-12 04:00:00 -2.4 3 Norte 7 Sudoeste 0 -- -- 88
2019-11-12 03:00:00 -1.8 0 Calma 11 Norte 0 -- -- 86
2019-11-12 02:00:00 -1.1 3 Sudoeste 6 Sudoeste 0 -- -- 83
2019-11-12 01:00:00 -0.4 3 Oeste 6 Oeste 0 -- -- 80
2019-11-12 00:00:00 0.3 3 Oeste 7 Noroeste 0 -- -- 78
2019-11-11 23:00:00 0.9 4 Oeste 10 Oeste 0 -- -- 77
2019-11-11 22:00:00 1.8 4 Nordeste 14 Nordeste 0 -- -- 73
2019-11-11 21:00:00 2.2 3 Norte 5 Oeste 0 -- -- 73
2019-11-11 20:00:00 3.3 2 Oeste 9 Nordeste 0 -- -- 65
2019-11-11 19:00:00 4.6 4 Noroeste 9 Nordeste 0 -- -- 58
2019-11-11 18:00:00 6.3 4 Noroeste 8 Norte 0 -- -- 54
2019-11-11 17:00:00 8.1 3 Oeste 8 Sudeste 0 -- -- 44
2019-11-11 16:00:00 10.9 3 Sudoeste 6 Sur 0 -- -- 33
2019-11-11 15:00:00 11.7 4 Sudeste 9 Este 0 -- -- 21
2019-11-11 14:00:00 10.7 4 Este 12 Este 0 -- -- 22
2019-11-11 13:00:00 10.5 4 Sur 10 Sudoeste 0 -- -- 26
2019-11-11 12:00:00 6.8 5 Sur 8 Sur 0 -- -- 41
2019-11-11 11:00:00 3.2 3 Este 8 Norte 0 -- -- 57
2019-11-11 10:00:00 -0.5 3 Sudoeste 9 Este 0 -- -- 76
2019-11-11 09:00:00 -1.9 2 Sur 6 Sudeste 0 -- -- 85
2019-11-11 08:00:00 -2.5 2 Nordeste 5 Nordeste 0 -- -- 84
2019-11-11 07:00:00 -2.9 3 Nordeste 6 Sudeste 0 -- -- 83
2019-11-11 06:00:00 -3.1 3 Nordeste 5 Norte 0 -- -- 83
2019-11-11 05:00:00 -3.1 2 Noroeste 7 Norte 0 -- -- 84
2019-11-11 04:00:00 -3 3 Este 5 Nordeste 0 -- -- 86
2019-11-11 03:00:00 -2.3 2 Norte 4 Nordeste 0 -- -- 82
2019-11-11 02:00:00 -1.8 2 Sudeste 10 Nordeste 0 -- -- 81
2019-11-11 01:00:00 -0.8 4 Norte 17 Nordeste 0 -- -- 77
2019-11-11 00:00:00 -0.6 3 Sudeste 11 Nordeste 0 -- -- 79
2019-11-10 23:00:00 0.1 3 Norte 12 Este 0 -- -- 78
2019-11-10 22:00:00 0.3 6 Nordeste 14 Este 0 -- -- 78
2019-11-10 21:00:00 1.1 5 Nordeste 13 Este 0 -- -- 74
2019-11-10 20:00:00 2.4 3 Oeste 21 Este 0 -- -- 67
2019-11-10 19:00:00 3.6 13 Nordeste 34 Este 0 -- -- 61
2019-11-10 18:00:00 4.9 9 Nordeste 20 Nordeste 0 -- -- 51
2019-11-10 17:00:00 6.8 5 Nordeste 15 Nordeste 0 -- -- 44
2019-11-10 16:00:00 8.6 5 Norte 19 Nordeste 0 -- -- 38
2019-11-10 15:00:00 9.2 8 Norte 26 Nordeste 0 -- -- 37
2019-11-10 14:00:00 10.2 8 Este 19 Este 0 -- -- 40
2019-11-10 13:00:00 10 6 Sudoeste 17 Sudoeste 0 -- -- 38
2019-11-10 12:00:00 7.8 6 Sur 13 Sur 0 -- -- 45
2019-11-10 11:00:00 5 5 Este 14 Nordeste 0 -- -- 67
2019-11-10 10:00:00 1.9 5 Noroeste 11 Oeste 0 -- -- 91
2019-11-10 09:00:00 0.6 3 Norte 9 Oeste 0 -- -- 91
2019-11-10 08:00:00 0.7 3 Nordeste 13 Norte 0 -- -- 92
2019-11-10 07:00:00 0.9 3 Sudoeste 10 Oeste 0 -- -- 94
2019-11-10 06:00:00 1.6 3 Sudoeste 10 Oeste 0 -- -- 95
2019-11-10 05:00:00 2.3 2 Noroeste 12 Norte 0 -- -- 95
2019-11-10 04:00:00 2.5 3 Oeste 6 Oeste 0 -- -- 95
2019-11-10 03:00:00 2.9 3 Oeste 4 Noroeste 0 -- -- 94
2019-11-10 02:00:00 3.3 2 Nordeste 7 Oeste 0.2 -- -- 91
2019-11-10 01:00:00 3.5 0 Calma 5 Nordeste 0 -- -- 91
2019-11-10 00:00:00 3.5 3 Nordeste 5 Nordeste 0 -- -- 85
2019-11-09 23:00:00 3.5 4 Nordeste 8 Nordeste 0 -- -- 83
2019-11-09 22:00:00 4.4 3 Norte 16 Oeste 0 -- -- 78
2019-11-09 21:00:00 5.2 6 Oeste 13 Noroeste 0 -- -- 73
2019-11-09 20:00:00 5.4 6 Oeste 19 Oeste 0 -- -- 71
2019-11-09 19:00:00 5.7 8 Oeste 28 Oeste 0 -- -- 69
2019-11-09 18:00:00 6.5 6 Oeste 22 Noroeste 0 -- -- 62
2019-11-09 17:00:00 8.3 7 Sudoeste 23 Oeste 0 -- -- 52
2019-11-09 16:00:00 9.9 14 Sudoeste 31 Sudoeste 0 -- -- 44
2019-11-09 15:00:00 10.9 17 Sudoeste 35 Sudoeste 0 -- -- 38
2019-11-09 14:00:00 11.3 17 Sudoeste 32 Sudoeste 0 -- -- 37
2019-11-09 13:00:00 11.1 13 Sudoeste 28 Oeste 0 -- -- 45
2019-11-09 12:00:00 9 9 Sudoeste 28 Oeste 0 -- -- 56
2019-11-09 11:00:00 7.4 12 Oeste 23 Oeste 0 -- -- 60
2019-11-09 10:00:00 5 3 Sudeste 7 Sudeste 0 -- -- 67
2019-11-09 09:00:00 1.8 3 Sudoeste 7 Oeste 0 -- -- 82
2019-11-09 08:00:00 1.3 0 Calma 6 Norte 0 -- -- 76
2019-11-09 07:00:00 1.3 3 Sudoeste 13 Norte 0 -- -- 75
2019-11-09 06:00:00 1.3 6 Norte 14 Nordeste 0 -- -- 69
2019-11-09 05:00:00 3.6 4 Noroeste 38 Sur 0 -- -- 52
2019-11-09 04:00:00 3.5 9 Oeste 25 Oeste 0 -- -- 49
2019-11-09 03:00:00 1.6 5 Oeste 20 Oeste 0 -- -- 63
2019-11-09 02:00:00 0.5 5 Noroeste 18 Noroeste 0 -- -- 85
2019-11-09 01:00:00 0.5 6 Noroeste 12 Noroeste 0 -- -- 90
2019-11-09 00:00:00 1.9 5 Oeste 28 Oeste 0 -- -- 85
2019-11-08 23:00:00 1.9 9 Oeste 24 Sudoeste 0 -- -- 87
2019-11-08 22:00:00 1.7 6 Oeste 21 Oeste 0 -- -- 88
2019-11-08 21:00:00 1.8 9 Oeste 26 Oeste 0 -- -- 88
2019-11-08 20:00:00 2.1 10 Oeste 22 Oeste 0 -- -- 90
2019-11-08 19:00:00 2.2 8 Oeste 17 Noroeste 0 -- -- 91
2019-11-08 18:00:00 2.8 3 Noroeste 19 Oeste 0 -- -- 88
2019-11-08 17:00:00 3.7 8 Oeste 23 Sudoeste 0.4 -- -- 86
2019-11-08 16:00:00 5.3 12 Noroeste 35 Oeste 0 -- -- 69
2019-11-08 15:00:00 7.2 15 Oeste 30 Oeste 0 -- -- 61
2019-11-08 14:00:00 8 15 Oeste 34 Oeste 0 -- -- 60
2019-11-08 13:00:00 7.5 13 Oeste 26 Sudoeste 0 -- -- 65
2019-11-08 12:00:00 5.5 7 Oeste 17 Sudoeste 0 -- -- 78
2019-11-08 11:00:00 3.4 3 Sudeste 9 Sudoeste 0 -- -- 83
2019-11-08 10:00:00 2.2 3 Sudoeste 21 Oeste 0 -- -- 95
2019-11-08 09:00:00 1.8 5 Oeste 9 Oeste 0 -- -- 98
2019-11-08 08:00:00 1.2 3 Noroeste 7 Noroeste 0 -- -- 98
2019-11-08 07:00:00 1 3 Noroeste 6 Norte 0 -- -- 98
2019-11-08 06:00:00 1 0 Calma 5 Oeste 0 -- -- 99
2019-11-08 05:00:00 1 3 Sudoeste 8 Norte 0 -- -- 99
2019-11-08 04:00:00 1.1 3 Noroeste 9 Oeste 0 -- -- 99
2019-11-08 03:00:00 1.3 0 Calma 8 Noroeste 0 -- -- 99
2019-11-08 02:00:00 1.2 3 Oeste 13 Este 0 -- -- 99
2019-11-08 01:00:00 0.9 0 Calma 4 Norte 0 -- -- 97
2019-11-08 00:00:00 1.4 3 Norte 6 Norte 0 -- -- 96
2019-11-07 23:00:00 2.2 3 Oeste 5 Oeste 0 -- -- 97
2019-11-07 22:00:00 2.1 0 Calma 10 Nordeste 0 -- -- 96
2019-11-07 21:00:00 2.3 6 Nordeste 24 Este 1.4 -- -- 95
2019-11-07 20:00:00 3.7 2 Norte 9 Oeste 0.4 -- -- 95
2019-11-07 19:00:00 3.8 3 Noroeste 11 Oeste 0 -- -- 91
2019-11-07 18:00:00 5.1 6 Noroeste 16 Oeste 0 -- -- 85
2019-11-07 17:00:00 6.2 3 Oeste 24 Oeste 0 -- -- 88
2019-11-07 16:00:00 6.8 17 Sudoeste 40 Sudoeste 0.2 -- -- 83
2019-11-07 15:00:00 8.5 5 Oeste 18 Oeste 0 -- -- 79
2019-11-07 14:00:00 7.7 7 Oeste 30 Oeste 0 -- -- 84
2019-11-07 13:00:00 7.7 3 Oeste 7 Oeste 0 -- -- 81
2019-11-07 12:00:00 6.4 4 Sudeste 8 Este 0.4 -- -- 85
2019-11-07 11:00:00 4.6 5 Este 12 Este 0 -- -- 87
2019-11-07 10:00:00 2.4 2 Sur 7 Sudeste 0 -- -- 94
2019-11-07 09:00:00 0.1 4 Sudeste 8 Sudeste 0 -- -- 100
2019-11-07 08:00:00 -2 2 Oeste 6 Sudeste 0 -- -- 98
2019-11-07 07:00:00 -1.7 3 Norte 5 Nordeste 0 -- -- 98
2019-11-07 06:00:00 -1.7 0 Calma 4 Este 0 -- -- 97
2019-11-07 05:00:00 -1.4 2 Nordeste 10 Este 0 -- -- 97
2019-11-07 04:00:00 -1.1 2 Sur 4 Norte 0 -- -- 97
2019-11-07 03:00:00 -1 0 Calma 3 Nordeste 0 -- -- 95
2019-11-07 02:00:00 -0.3 0 Calma 7 Norte 0 -- -- 94
2019-11-07 01:00:00 0 0 Calma 5 Norte 0 -- -- 92
2019-11-07 00:00:00 0.9 2 Sudeste 6 Nordeste 0 -- -- 90
2019-11-06 23:00:00 1.3 0 Calma 5 Nordeste -- -- -- 91
2019-11-06 22:00:00 1.5 0 Calma 4 Nordeste 0 -- -- 86
2019-11-06 21:00:00 2.7 0 Calma 5 Norte 0 -- -- 79
2019-11-06 20:00:00 3.9 0 Calma 4 Sudeste 0 -- -- 76
2019-11-06 19:00:00 5.7 0 Calma 12 Oeste 0 -- -- 70
2019-11-06 18:00:00 8.3 6 Noroeste 16 Sudoeste 0 -- -- 58
2019-11-06 17:00:00 9.9 7 Sudoeste 27 Sudoeste 0 -- -- 55
2019-11-06 16:00:00 10.8 17 Sudoeste 31 Oeste 0 -- -- 53
2019-11-06 15:00:00 11.7 13 Sudoeste 30 Sudoeste 0 -- -- 56
2019-11-06 14:00:00 11.1 10 Sudoeste 30 Oeste 0 -- -- 55
2019-11-06 13:00:00 10.2 12 Oeste 23 Oeste 0 -- -- 60
2019-11-06 12:00:00 8.8 3 Sudeste 15 Este 0 -- -- 69
2019-11-06 11:00:00 7.2 5 Sudeste 13 Este 0 -- -- 77
2019-11-06 10:00:00 3.4 4 Sur 9 Este 0 -- -- 91
2019-11-06 09:00:00 0.4 2 Sudeste 8 Sudeste 0 -- -- 99
2019-11-06 08:00:00 -0.1 2 Sur 7 Oeste 0 -- -- 99
2019-11-06 07:00:00 -0.5 2 Este 8 Norte 0 -- -- 98
2019-11-06 06:00:00 -0.6 0 Calma 6 Norte 0 -- -- 98
2019-11-06 05:00:00 -0.8 5 Norte 10 Norte 0 -- -- 98
2019-11-06 04:00:00 -0.4 2 Norte 5 Nordeste 0 -- -- 97
2019-11-06 03:00:00 0.1 3 Nordeste 7 Sudeste 0 -- -- 97
2019-11-06 02:00:00 0.5 2 Sudeste 7 Este 0 -- -- 96
2019-11-06 01:00:00 0.8 2 Sudeste 9 Norte 0 -- -- 94
2019-11-06 00:00:00 1.7 3 Noroeste 9 Nordeste 0 -- -- 93
2019-11-05 23:00:00 2.5 3 Norte 12 Noroeste 0 -- -- 89
2019-11-05 22:00:00 3.4 0 Calma 8 Norte 0 -- -- 87
2019-11-05 21:00:00 4.4 2 Noroeste 12 Oeste 0 -- -- 82
2019-11-05 20:00:00 5.5 5 Noroeste 16 Oeste 0 -- -- 76
2019-11-05 19:00:00 6.7 7 Oeste 22 Oeste 0 -- -- 72
2019-11-05 18:00:00 7.7 12 Sudoeste 31 Sudoeste 0 -- -- 65
2019-11-05 17:00:00 9 10 Sudoeste 36 Sudoeste 0 -- -- 61
2019-11-05 16:00:00 9.9 13 Sudoeste 30 Sudoeste 0 -- -- 58
2019-11-05 15:00:00 10 13 Oeste 35 Sudoeste 0 -- -- 59
2019-11-05 14:00:00 10.9 12 Sudoeste 31 Oeste 0 -- -- 56
2019-11-05 13:00:00 9.8 11 Oeste 30 Oeste 0 -- -- 62
2019-11-05 12:00:00 9.7 15 Oeste 31 Oeste 0 -- -- 64
2019-11-05 11:00:00 8.4 14 Oeste 27 Oeste 0 -- -- 65
2019-11-05 10:00:00 7.3 8 Sudoeste 23 Oeste 0 -- -- 71
2019-11-05 09:00:00 5.9 6 Sudoeste 20 Oeste 0 -- -- 80
2019-11-05 08:00:00 3.9 6 Oeste 10 Oeste 0 -- -- 93
2019-11-05 07:00:00 3.9 5 Oeste 10 Noroeste 0 -- -- 90
2019-11-05 06:00:00 5.6 5 Noroeste 12 Oeste 0 -- -- 86
2019-11-05 05:00:00 6.3 5 Noroeste 21 Oeste 0 -- -- 86
2019-11-05 04:00:00 7.6 11 Sudoeste 32 Sur 0 -- -- 75
2019-11-05 03:00:00 7.3 5 Oeste 17 Noroeste 0 -- -- 90
2019-11-05 02:00:00 7.7 6 Oeste 32 Oeste 0 -- -- 94
2019-11-05 01:00:00 7.8 3 Noroeste 16 Oeste 0.2 -- -- 95
2019-11-05 00:00:00 8.4 8 Sudoeste 39 Sudoeste 0.4 -- -- 89
2019-11-04 23:00:00 8.4 6 Noroeste 26 Oeste 0 -- -- 93
2019-11-04 22:00:00 9.6 18 Sudoeste 40 Sudoeste 2.2 -- -- 86
2019-11-04 21:00:00 9.6 0 Calma 9 Oeste 1.2 -- -- 95
2019-11-04 20:00:00 9.7 4 Noroeste 8 Oeste 1.6 -- -- 94
2019-11-04 19:00:00 10.2 3 Oeste 8 Oeste 0.4 -- -- 90
2019-11-04 18:00:00 10.3 5 Noroeste 14 Oeste 0 -- -- 87
2019-11-04 17:00:00 10.8 5 Oeste 13 Oeste 0 -- -- 85
2019-11-04 16:00:00 11.1 4 Oeste 22 Oeste 0 -- -- 86
2019-11-04 15:00:00 11.5 9 Oeste 25 Oeste 0 -- -- 78
2019-11-04 14:00:00 12.8 10 Oeste 33 Oeste 0 -- -- 69
2019-11-04 13:00:00 13.7 10 Oeste 37 Oeste 0 -- -- 65
2019-11-04 12:00:00 13 13 Oeste 33 Oeste 0 -- -- 69
2019-11-04 11:00:00 10.8 12 Oeste 24 Oeste 0 -- -- 79
2019-11-04 10:00:00 5.6 2 Nordeste 6 Sudeste 0 -- -- 86
2019-11-04 09:00:00 3.5 0 Calma 4 Sudeste 0 -- -- 95
2019-11-04 08:00:00 2.2 0 Calma 3 Este 0 -- -- 98
2019-11-04 07:00:00 1.6 0 Calma 6 Este 0 -- -- 98
2019-11-04 06:00:00 0.9 2 Sudeste 7 Este 0 -- -- 97
2019-11-04 05:00:00 1 0 Calma 6 Este 0 -- -- 96
2019-11-04 04:00:00 1.2 2 Noroeste 6 Noroeste 0 -- -- 96
2019-11-04 03:00:00 1.9 0 Calma 6 Noroeste 0 -- -- 93
2019-11-04 02:00:00 2.6 3 Este 15 Este 0 -- -- 92
2019-11-04 01:00:00 2.4 2 Oeste 6 Nordeste 0 -- -- 93
2019-11-04 00:00:00 2.7 2 Oeste 5 Nordeste 0 -- -- 92
2019-11-03 23:00:00 2.8 2 Nordeste 6 Norte 0 -- -- 86
2019-11-03 22:00:00 4.1 3 Sur 5 Sudeste 0 -- -- 80
2019-11-03 21:00:00 5.8 2 Sudeste 9 Sudoeste 0 -- -- 70
2019-11-03 20:00:00 7.5 5 Noroeste 13 Noroeste 0 -- -- 61
2019-11-03 19:00:00 9.1 5 Oeste 20 Oeste 0 -- -- 53
2019-11-03 18:00:00 10.6 8 Sudoeste 34 Sudoeste 0 -- -- 48
2019-11-03 17:00:00 12.1 18 Sudoeste 41 Sudoeste 0 -- -- 45
2019-11-03 16:00:00 13.7 23 Sudoeste 42 Sudoeste 0 -- -- 42
2019-11-03 15:00:00 14.4 24 Sudoeste 43 Sudoeste 0 -- -- 41
2019-11-03 14:00:00 14.4 22 Sudoeste 46 Sudoeste 0 -- -- 45
2019-11-03 13:00:00 13.8 17 Sudoeste 35 Sudoeste 0 -- -- 52
2019-11-03 12:00:00 10.1 6 Sudoeste 18 Este 0 -- -- 77
2019-11-03 11:00:00 6.8 7 Este 34 Este 0.2 -- -- 90
2019-11-03 10:00:00 7.1 5 Sudeste 22 Oeste 5.6 -- -- 88
2019-11-03 09:00:00 8.9 2 Noroeste 24 Oeste 0.4 -- -- 94
2019-11-03 08:00:00 8.7 11 Oeste 39 Oeste 0.4 -- -- 92
2019-11-03 07:00:00 9 9 Oeste 34 Oeste 0 -- -- 88
2019-11-03 06:00:00 8.9 15 Oeste 35 Oeste 0 -- -- 90
2019-11-03 05:00:00 9 10 Oeste 38 Oeste 0 -- -- 87
2019-11-03 04:00:00 9.1 13 Oeste 40 Sudoeste 0.2 -- -- 87
2019-11-03 03:00:00 9.7 19 Sudoeste 46 Sudoeste 0.2 -- -- 82
2019-11-03 02:00:00 9.5 7 Oeste 46 Sudoeste 2.2 -- -- 92
2019-11-03 01:00:00 10.5 17 Sudoeste 46 Oeste 2.2 -- -- 90
2019-11-03 00:00:00 11.1 6 Oeste 14 Sudoeste 0 -- -- 85
2019-11-02 23:00:00 11.1 8 Oeste 24 Oeste 0 -- -- 87
2019-11-02 22:00:00 11.1 6 Oeste 22 Oeste 0.2 -- -- 91
2019-11-02 21:00:00 11.3 6 Noroeste 14 Oeste 0 -- -- 92
2019-11-02 20:00:00 11.5 5 Noroeste 10 Norte 0 -- -- 91
2019-11-02 19:00:00 11.9 5 Noroeste 10 Norte 0.2 -- -- 90
2019-11-02 18:00:00 12.3 5 Noroeste 12 Noroeste 0 -- -- 86
2019-11-02 17:00:00 13.3 6 Noroeste 19 Oeste 0 -- -- 81
2019-11-02 16:00:00 13.6 6 Oeste 14 Oeste 0 -- -- 84
2019-11-02 15:00:00 13 4 Noroeste 14 Oeste 0 -- -- 86
2019-11-02 14:00:00 14 8 Oeste 16 Sudoeste 0 -- -- 82
2019-11-02 13:00:00 13.4 4 Sudeste 8 Sur 0 -- -- 85
2019-11-02 12:00:00 10.4 2 Sudeste 8 Este 0 -- -- 93
2019-11-02 11:00:00 9.1 0 Calma 7 Nordeste 0 -- -- 96
2019-11-02 10:00:00 8.6 2 Nordeste 10 Este 0 -- -- 99
2019-11-02 09:00:00 8.2 5 Este 9 Este 0 -- -- 100
2019-11-02 08:00:00 7.9 3 Este 6 Nordeste 0 -- -- 100
2019-11-02 07:00:00 7.8 2 Este 7 Este 0 -- -- 100
2019-11-02 06:00:00 7.7 3 Este 11 Este 0 -- -- 99
2019-11-02 05:00:00 7.5 6 Este 14 Este 0 -- -- 99
2019-11-02 04:00:00 7.4 3 Este 9 Oeste 0 -- -- 99
2019-11-02 03:00:00 7.1 0 Calma 6 Nordeste 0 -- -- 97
2019-11-02 02:00:00 7.8 2 Este 9 Nordeste 0 -- -- 97
2019-11-02 01:00:00 8.3 0 Calma 6 Oeste 4.4 -- -- 97
2019-11-02 00:00:00 8.4 3 Sudoeste 7 Este 1.4 -- -- 97
2019-11-01 23:00:00 8.3 3 Este 15 Este 6.6 -- -- 96
2019-11-01 22:00:00 8.3 3 Noroeste 7 Oeste 2.8 -- -- 93
2019-11-01 21:00:00 8.5 3 Nordeste 6 Nordeste 0 -- -- 83
2019-11-01 20:00:00 8.9 0 Calma 4 Sudoeste 0 -- -- 80
2019-11-01 19:00:00 9.9 2 Oeste 5 Sudoeste 0 -- -- 76
2019-11-01 18:00:00 11.5 0 Calma 10 Oeste 0 -- -- 67
2019-11-01 17:00:00 14.3 3 Noroeste 11 Oeste 0 -- -- 58
2019-11-01 16:00:00 15.7 5 Oeste 10 Oeste 0 -- -- 52
2019-11-01 15:00:00 14.1 6 Noroeste 14 Oeste 0 -- -- 59
2019-11-01 14:00:00 13.8 5 Oeste 13 Oeste 0 -- -- 59
2019-11-01 13:00:00 13.4 3 Sudeste 9 Este 0 -- -- 59
2019-11-01 12:00:00 11.1 2 Sudeste 5 Este 0 -- -- 65
2019-11-01 11:00:00 9 2 Sudeste 17 Este 0 -- -- 73
2019-11-01 10:00:00 7.1 3 Sudeste 9 Nordeste 0 -- -- 86
2019-11-01 09:00:00 3.9 4 Este 12 Nordeste 0 -- -- 98
2019-11-01 08:00:00 2.9 3 Sudeste 9 Este 0 -- -- 98
2019-11-01 07:00:00 2.6 0 Calma 6 Nordeste 0 -- -- 99
2019-11-01 06:00:00 2 0 Calma 6 Este 0 -- -- 98
2019-11-01 05:00:00 2 2 Nordeste 4 Nordeste 0 -- -- 97
2019-11-01 04:00:00 2.3 2 Nordeste 5 Nordeste 0 -- -- 96
2019-11-01 03:00:00 2.9 2 Norte 6 Nordeste 0 -- -- 96
2019-11-01 02:00:00 3.4 0 Calma 6 Este 0 -- -- 95
2019-11-01 01:00:00 4.2 0 Calma 5 Oeste 0 -- -- 93
2019-11-01 00:00:00 4.3 2 Sur 6 Este 0 -- -- 92
2019-10-31 23:00:00 5.5 2 Oeste 6 Norte 0 -- -- 87
2019-10-31 22:00:00 6.3 2 Noroeste 4 Nordeste 0 -- -- 85
2019-10-31 21:00:00 7.2 0 Calma 6 Nordeste 0 -- -- 82
2019-10-31 20:00:00 8.4 3 Oeste 6 Noroeste 0 -- -- 81
2019-10-31 19:00:00 9.7 3 Norte 8 Norte 0 -- -- 76
2019-10-31 18:00:00 12.4 4 Sudoeste 11 Noroeste 0 -- -- 75
2019-10-31 17:00:00 15.2 2 Nordeste 4 Este 0 -- -- 72
2019-10-31 16:00:00 16.5 3 Sudoeste 6 Este 0 -- -- 66
2019-10-31 15:00:00 15.4 3 Este 15 Este 0 -- -- 70
2019-10-31 14:00:00 15.8 6 Nordeste 14 Nordeste 0 -- -- 64
2019-10-31 13:00:00 15 3 Este 17 Este 0 -- -- 71
2019-10-31 12:00:00 12.9 4 Este 21 Este 0 -- -- 83
2019-10-31 11:00:00 11.4 8 Este 16 Nordeste 0 -- -- 91
2019-10-31 10:00:00 9.8 0 Calma 4 Sudeste 0.2 -- -- 97
2019-10-31 09:00:00 8.3 2 Sudeste 4 Sudeste 0.2 -- -- 98
2019-10-31 08:00:00 7.7 0 Calma 5 Nordeste 0 -- -- 98
2019-10-31 07:00:00 7.3 2 Norte 6 Este 0 -- -- 97
2019-10-31 06:00:00 7.5 3 Este 6 Este 0 -- -- 96
2019-10-31 05:00:00 8.4 2 Nordeste 6 Sudeste 0 -- -- 96
2019-10-31 04:00:00 8.2 2 Norte 4 Norte 0 -- -- 95
2019-10-31 03:00:00 7.8 2 Norte 5 Este 0 -- -- 95
2019-10-31 02:00:00 8 2 Sudeste 4 Sudeste 0 -- -- 93
2019-10-31 01:00:00 8.3 0 Calma 4 Nordeste 0 -- -- 93
2019-10-31 00:00:00 8.4 3 Nordeste 6 Nordeste 0 -- -- 91
2019-10-30 23:00:00 9.2 0 Calma 5 Este 0 -- -- 89
2019-10-30 22:00:00 9.8 4 Nordeste 5 Nordeste 0 -- -- 86
2019-10-30 21:00:00 10.2 3 Norte 6 Norte 0 -- -- 83
2019-10-30 20:00:00 11.5 2 Oeste 7 Norte 0 -- -- 79
2019-10-30 19:00:00 12.7 3 Oeste 6 Oeste 0 -- -- 74
2019-10-30 18:00:00 14.9 3 Oeste 17 Sudoeste 0 -- -- 67
2019-10-30 17:00:00 17.1 6 Sudoeste 18 Sudoeste 0 -- -- 60
2019-10-30 16:00:00 18.1 11 Oeste 20 Oeste 0 -- -- 55
2019-10-30 15:00:00 19.8 11 Oeste 28 Oeste 0 -- -- 48
2019-10-30 14:00:00 19.2 11 Oeste 24 Oeste 0 -- -- 51
2019-10-30 13:00:00 18.6 10 Oeste 21 Oeste 0 -- -- 55
2019-10-30 12:00:00 14.6 4 Norte 8 Sudoeste 0 -- -- 68
2019-10-30 11:00:00 11 4 Sur 8 Sur 0 -- -- 82
2019-10-30 10:00:00 6 2 Sudeste 5 Sudeste 0 -- -- 100
2019-10-30 09:00:00 3.9 0 Calma 4 Nordeste 0 -- -- 100
2019-10-30 08:00:00 3 0 Calma 4 Nordeste 0 -- -- 99
2019-10-30 07:00:00 3 0 Calma 4 Este 0 -- -- 99
2019-10-30 06:00:00 3.2 0 Calma 5 Sudeste 0 -- -- 98
2019-10-30 05:00:00 3.8 0 Calma 4 Nordeste 0 -- -- 96
2019-10-30 04:00:00 4.4 0 Calma 2 Norte 0 -- -- 97
2019-10-30 03:00:00 4.7 2 Este 4 Este 0 -- -- 96
2019-10-30 02:00:00 5.4 0 Calma 4 Sudeste 0 -- -- 94
2019-10-30 01:00:00 6.2 2 Nordeste 4 Nordeste 0 -- -- 93
2019-10-30 00:00:00 6.6 0 Calma 5 Sudeste 0 -- -- 93
2019-10-29 23:00:00 7.4 2 Nordeste 5 Nordeste 0 -- -- 89
2019-10-29 22:00:00 8.4 3 Norte 5 Norte 0 -- -- 85
2019-10-29 21:00:00 9.5 0 Calma 5 Norte 0 -- -- 79
2019-10-29 20:00:00 10.4 3 Norte 8 Norte 0 -- -- 74
2019-10-29 19:00:00 12 2 Noroeste 12 Oeste 0 -- -- 72
2019-10-29 18:00:00 13.9 6 Oeste 9 Oeste 0 -- -- 71
2019-10-29 17:00:00 18.7 3 Sudoeste 18 Sudoeste 0 -- -- 52
2019-10-29 16:00:00 20.5 7 Sudoeste 20 Oeste 0 -- -- 44
2019-10-29 15:00:00 20.1 10 Oeste 18 Oeste 0 -- -- 45
2019-10-29 14:00:00 20 7 Oeste 12 Oeste 0 -- -- 48
2019-10-29 13:00:00 16.6 7 Oeste 12 Oeste 0 -- -- 58
2019-10-29 12:00:00 14.2 3 Sudoeste 17 Este 0 -- -- 66
2019-10-29 11:00:00 13.1 6 Este 18 Este 0 -- -- 67
2019-10-29 10:00:00 8.6 6 Este 16 Este 0 -- -- 99
2019-10-29 09:00:00 4.7 0 Calma 8 Sudeste 0 -- -- 100
2019-10-29 08:00:00 3.7 2 Sudeste 5 Sudeste 0 -- -- 100
2019-10-29 07:00:00 4 2 Este 4 Este 0 -- -- 99
2019-10-29 06:00:00 4.2 0 Calma 4 Este 0 -- -- 99
2019-10-29 05:00:00 4.3 2 Este 4 Este 0 -- -- 98
2019-10-29 04:00:00 4.9 0 Calma 5 Nordeste 0 -- -- 97
2019-10-29 03:00:00 5.6 0 Calma 4 Nordeste 0 -- -- 96
2019-10-29 02:00:00 6.3 2 Nordeste 6 Norte 0 -- -- 95
2019-10-29 01:00:00 7.1 4 Norte 5 Nordeste 0 -- -- 93
2019-10-29 00:00:00 8.1 3 Nordeste 5 Noroeste 0 -- -- 92
2019-10-28 23:00:00 8.7 2 Norte 6 Norte 0 -- -- 90
2019-10-28 22:00:00 9.6 3 Sudeste 5 Noroeste 0 -- -- 90
2019-10-28 21:00:00 10.2 0 Calma 6 Noroeste 0 -- -- 89
2019-10-28 20:00:00 10.8 2 Oeste 7 Oeste 0 -- -- 86
2019-10-28 19:00:00 12.1 3 Noroeste 9 Norte 0 -- -- 81
2019-10-28 18:00:00 13.3 3 Norte 15 Este 0 -- -- 77
2019-10-28 17:00:00 14 9 Nordeste 16 Este 0 -- -- 73
2019-10-28 16:00:00 14.8 2 Oeste 6 Oeste 0 -- -- 69
2019-10-28 15:00:00 15.3 0 Calma 7 Este 0 -- -- 69
2019-10-28 14:00:00 14.4 5 Este 10 Este 0 -- -- 73
2019-10-28 13:00:00 13.1 3 Oeste 6 Oeste 0 -- -- 75
2019-10-28 12:00:00 11.4 2 Sudoeste 7 Sudoeste 0 -- -- 83
2019-10-28 11:00:00 9.4 3 Este 15 Este 0 -- -- 89
2019-10-28 10:00:00 7.1 0 Calma 12 Este 0 -- -- 98
2019-10-28 09:00:00 6.1 2 Sur 6 Este 0 -- -- 99
2019-10-28 08:00:00 5.5 2 Este 5 Nordeste 0 -- -- 98
2019-10-28 07:00:00 5.6 0 Calma 4 Nordeste 0 -- -- 97
2019-10-28 06:00:00 6.1 2 Este 10 Este 0 -- -- 97
2019-10-28 05:00:00 6.4 0 Calma 5 Sudeste 0 -- -- 96
2019-10-28 04:00:00 6.7 0 Calma 3 Nordeste 0 -- -- 97
2019-10-28 03:00:00 6.5 0 Calma 4 Norte 0 -- -- 95
2019-10-28 02:00:00 6.8 0 Calma 4 Nordeste 0 -- -- 96
2019-10-28 01:00:00 6.8 2 Este 13 Este 0 -- -- 96
2019-10-28 00:00:00 7.3 0 Calma 6 Norte 0 -- -- 90
2019-10-27 23:00:00 8.1 3 Oeste 4 Oeste 0 -- -- 89
2019-10-27 22:00:00 8.8 0 Calma 4 Norte 0 -- -- 87
2019-10-27 21:00:00 9.6 0 Calma 5 Nordeste 0 -- -- 83
2019-10-27 20:00:00 11 2 Sudoeste 4 Sudoeste 0 -- -- 81
2019-10-27 19:00:00 12.4 2 Oeste 4 Oeste 0 -- -- 76
2019-10-27 18:00:00 14.3 3 Noroeste 12 Oeste 0 -- -- 68
2019-10-27 17:00:00 16.7 6 Noroeste 23 Noroeste 0 -- -- 58
2019-10-27 16:00:00 18.5 8 Oeste 28 Oeste 0 -- -- 52
2019-10-27 15:00:00 20.1 9 Oeste 23 Oeste 0 -- -- 50
2019-10-27 14:00:00 19.5 9 Oeste 21 Oeste 0 -- -- 48
2019-10-27 13:00:00 18.2 7 Oeste 20 Oeste 0 -- -- 54
2019-10-27 12:00:00 15.1 4 Sudeste 9 Este 0 -- -- 65
2019-10-27 11:00:00 11.3 5 Sur 8 Sudeste 0 -- -- 81
2019-10-27 10:00:00 6 2 Sudeste 12 Este 0 -- -- 100
2019-10-27 09:00:00 4.3 4 Este 17 Este 0 -- -- 100
2019-10-27 08:00:00 2.6 4 Este 8 Este 0 -- -- 99
2019-10-27 07:00:00 2 0 Calma 5 Este 0 -- -- 99
2019-10-27 06:00:00 2.5 0 Calma 5 Nordeste 0 -- -- 98
2019-10-27 05:00:00 3.2 4 Nordeste 6 Nordeste 0 -- -- 98
2019-10-27 04:00:00 3.4 3 Sudeste 5 Sur 0 -- -- 97
2019-10-27 03:00:00 4 0 Calma 4 Nordeste 0 -- -- 96
2019-10-27 02:00:00 4.5 2 Nordeste 4 Sudeste 0 -- -- 95
2019-10-27 01:00:00 5.9 0 Calma 6 Nordeste 0 -- -- 91
2019-10-27 00:00:00 6.7 0 Calma 4 Nordeste 0 -- -- 88
2019-10-26 23:00:00 7.6 0 Calma 5 Nordeste 0 -- -- 84
2019-10-26 22:00:00 8.4 0 Calma 3 Oeste 0 -- -- 83
2019-10-26 21:00:00 9.3 0 Calma 6 Oeste 0 -- -- 79
2019-10-26 20:00:00 10.8 0 Calma 6 Noroeste 0 -- -- 75
2019-10-26 19:00:00 13.1 2 Oeste 8 Noroeste 0 -- -- 67
2019-10-26 18:00:00 17.5 4 Oeste 14 Oeste 0 -- -- 50
2019-10-26 17:00:00 20 6 Oeste 17 Oeste 0 -- -- 40
2019-10-26 16:00:00 20.4 8 Oeste 18 Sudoeste 0 -- -- 38
2019-10-26 15:00:00 19.5 8 Oeste 19 Oeste 0 -- -- 41
2019-10-26 14:00:00 17.5 7 Oeste 15 Oeste 0 -- -- 45
2019-10-26 13:00:00 14.5 4 Sur 10 Sur 0 -- -- 52
2019-10-26 12:00:00 10.6 4 Sudeste 8 Sudeste 0 -- -- 70
2019-10-26 11:00:00 5.9 3 Sur 5 Sur 0 -- -- 88
2019-10-26 10:00:00 2.5 0 Calma 6 Este 0 -- -- 99
2019-10-26 09:00:00 0.4 3 Sudeste 5 Sudeste 0 -- -- 99
2019-10-26 08:00:00 0.6 3 Sudeste 8 Sudeste 0 -- -- 98
2019-10-26 07:00:00 1 0 Calma 4 Nordeste 0 -- -- 98
2019-10-26 06:00:00 1.3 2 Este 5 Sudeste 0 -- -- 97
2019-10-26 05:00:00 1.7 0 Calma 4 Nordeste 0 -- -- 95
2019-10-26 04:00:00 2.5 2 Nordeste 4 Nordeste 0 -- -- 96
2019-10-26 03:00:00 2.8 0 Calma 4 Norte 0 -- -- 94
2019-10-26 02:00:00 3.6 0 Calma 5 Nordeste 0 -- -- 93
2019-10-26 01:00:00 4.1 3 Sudeste 6 Este 0 -- -- 92
2019-10-26 00:00:00 4.9 3 Nordeste 6 Norte 0 -- -- 87
2019-10-25 23:00:00 5.9 0 Calma 6 Norte 0 -- -- 83
2019-10-25 22:00:00 7 0 Calma 6 Norte 0 -- -- 81
2019-10-25 21:00:00 8.3 0 Calma 6 Oeste 0 -- -- 77
2019-10-25 20:00:00 9.6 3 Oeste 7 Oeste 0 -- -- 73
2019-10-25 19:00:00 12.3 4 Oeste 8 Sudoeste 0 -- -- 64
2019-10-25 18:00:00 16.6 5 Oeste 10 Oeste 0 -- -- 52
2019-10-25 17:00:00 19.6 4 Sudoeste 14 Oeste 0 -- -- 34
2019-10-25 16:00:00 19.8 7 Oeste 21 Oeste 0 -- -- 36
2019-10-25 15:00:00 18.9 9 Oeste 20 Oeste 0 -- -- 33
2019-10-25 14:00:00 17.7 6 Oeste 12 Oeste 0 -- -- 45
2019-10-25 13:00:00 14.3 3 Sur 7 Sudeste 0 -- -- 56
2019-10-25 12:00:00 10.1 3 Sudeste 20 Nordeste 0 -- -- 67
2019-10-25 11:00:00 6.5 3 Sudeste 8 Este 0 -- -- 95
2019-10-25 10:00:00 3.5 3 Sudeste 13 Este 0 -- -- 100
2019-10-25 09:00:00 2.1 2 Sur 5 Sudoeste 0 -- -- 100
2019-10-25 08:00:00 2.3 2 Sudeste 7 Oeste 0 -- -- 100
2019-10-25 07:00:00 2.1 3 Este 5 Este 0 -- -- 99
2019-10-25 06:00:00 2.6 3 Este 6 Nordeste 0 -- -- 99
2019-10-25 05:00:00 3.3 0 Calma 4 Nordeste 0 -- -- 97
2019-10-25 04:00:00 4.2 2 Norte 5 Norte 0 -- -- 97
2019-10-25 03:00:00 4.7 3 Nordeste 7 Norte 0 -- -- 96
2019-10-25 02:00:00 5.6 2 Nordeste 6 Noroeste 0 -- -- 96
2019-10-25 01:00:00 6.4 0 Calma 5 Nordeste 0 -- -- 95
2019-10-25 00:00:00 7.6 0 Calma 13 Oeste 0 -- -- 93
2019-10-24 23:00:00 8.2 5 Sudoeste 8 Sudoeste 0 -- -- 93
2019-10-24 22:00:00 9 3 Oeste 9 Oeste 0 -- -- 90
2019-10-24 21:00:00 9.6 5 Oeste 10 Oeste 0 -- -- 86
2019-10-24 20:00:00 10.3 3 Oeste 11 Sudoeste 0 -- -- 84
2019-10-24 19:00:00 11.9 0 Calma 4 Noroeste 0 -- -- 75
2019-10-24 18:00:00 13.3 3 Oeste 10 Oeste 0 -- -- 66
2019-10-24 17:00:00 13.9 6 Oeste 13 Oeste 0 -- -- 62
2019-10-24 16:00:00 15.1 6 Oeste 15 Oeste 0 -- -- 59
2019-10-24 15:00:00 14.7 6 Oeste 15 Oeste 0 -- -- 59
2019-10-24 14:00:00 12.6 3 Sudeste 9 Sudeste 0 -- -- 68
2019-10-24 13:00:00 9.8 3 Nordeste 10 Este 0 -- -- 81
2019-10-24 12:00:00 7.5 3 Sur 9 Este 0 -- -- 85
2019-10-24 11:00:00 6.6 5 Nordeste 9 Este 0.2 -- -- 91
2019-10-24 10:00:00 5.5 0 Calma 12 Este 0 -- -- 95
2019-10-24 09:00:00 4.6 5 Norte 11 Norte 0 -- -- 96
2019-10-24 08:00:00 5.3 0 Calma 6 Noroeste 0 -- -- 99
2019-10-24 07:00:00 5.1 0 Calma 10 Este 0 -- -- 99
2019-10-24 06:00:00 4.7 2 Sudeste 22 Este 0 -- -- 99
2019-10-24 05:00:00 4.5 4 Norte 10 Norte 0 -- -- 98
2019-10-24 04:00:00 4.5 3 Oeste 7 Norte 0 -- -- 98
2019-10-24 03:00:00 4.7 4 Norte 8 Norte 0 -- -- 95
2019-10-24 02:00:00 5.8 2 Oeste 6 Este 0 -- -- 97
2019-10-24 01:00:00 6.5 2 Norte 6 Noroeste 0 -- -- 97
2019-10-24 00:00:00 7 4 Oeste 6 Oeste 0.2 -- -- 97
2019-10-23 23:00:00 7.4 2 Noroeste 8 Noroeste 0 -- -- 97
2019-10-23 22:00:00 7.5 3 Nordeste 7 Norte 0 -- -- 96
2019-10-23 21:00:00 8 2 Norte 13 Este 1.8 -- -- 93
2019-10-23 20:00:00 8.8 8 Este 33 Este 0.2 -- -- 86
2019-10-23 19:00:00 11 2 Nordeste 18 Este 0 -- -- 78
2019-10-23 18:00:00 11.7 6 Este 23 Nordeste 0 -- -- 71
2019-10-23 17:00:00 12.8 5 Nordeste 19 Norte 0 -- -- 66
2019-10-23 16:00:00 13 3 Norte 13 Oeste 0 -- -- 64
2019-10-23 15:00:00 13 5 Nordeste 22 Nordeste 0 -- -- 64
2019-10-23 14:00:00 13.4 5 Nordeste 27 Nordeste 0 -- -- 72
2019-10-23 13:00:00 11.6 5 Este 14 Este 0 -- -- 92
2019-10-23 12:00:00 10.6 9 Oeste 22 Nordeste 0 -- -- 91
2019-10-23 11:00:00 11 12 Este 28 Este 0.2 -- -- 87
2019-10-23 10:00:00 9.9 10 Nordeste 26 Este 0.4 -- -- 94
2019-10-23 09:00:00 9 4 Nordeste 24 Nordeste 0.4 -- -- 97
2019-10-23 08:00:00 8.5 4 Oeste 21 Nordeste 0.2 -- -- 97
2019-10-23 07:00:00 8.4 7 Nordeste 42 Este 0.2 -- -- 96
2019-10-23 06:00:00 8.1 12 Este 29 Este 3.6 -- -- 99
2019-10-23 05:00:00 8.2 5 Noroeste 22 Sur 4.4 -- -- 98
2019-10-23 04:00:00 8.2 8 Sur 22 Sur 6.2 -- -- 98
2019-10-23 03:00:00 8.6 3 Noroeste 12 Oeste 8.6 -- -- 98
2019-10-23 02:00:00 8.9 3 Sudoeste 11 Oeste 7.2 -- -- 98
2019-10-23 01:00:00 9.2 5 Oeste 27 Sur 10.6 -- -- 96
2019-10-23 00:00:00 9.4 15 Oeste 51 Oeste 15.8 -- -- 93
2019-10-22 23:00:00 14.9 6 Sudeste 27 Este 1.4 -- -- 85
2019-10-22 22:00:00 15.4 10 Este 40 Este 0 -- -- 79
2019-10-22 21:00:00 14.5 5 Nordeste 40 Este 0 -- -- 84
2019-10-22 20:00:00 13.7 9 Sudeste 38 Este 2 -- -- 91
2019-10-22 19:00:00 13.1 7 Nordeste 26 Nordeste 0.6 -- -- 93
2019-10-22 18:00:00 12.4 13 Este 23 Este 4.6 -- -- 94
2019-10-22 17:00:00 11.8 5 Este 26 Sudeste 4.6 -- -- 95
2019-10-22 16:00:00 11.2 8 Sudeste 22 Sudeste 7.4 -- -- 96
2019-10-22 15:00:00 10.9 3 Norte 19 Nordeste 2.2 -- -- 97
2019-10-22 14:00:00 11.3 10 Nordeste 26 Este 2.8 -- -- 94
2019-10-22 13:00:00 10.8 14 Este 36 Este 1.4 -- -- 92
2019-10-22 12:00:00 9.8 15 Este 42 Este 0.8 -- -- 95
2019-10-22 11:00:00 7.8 8 Nordeste 21 Nordeste 0.6 -- -- 97
2019-10-22 10:00:00 6.9 8 Nordeste 18 Nordeste 1 -- -- 97
2019-10-22 09:00:00 6.2 4 Nordeste 19 Este 2.6 -- -- 97
2019-10-22 08:00:00 6.2 8 Este 18 Nordeste 2.6 -- -- 96
2019-10-22 07:00:00 6 13 Nordeste 20 Nordeste 0.2 -- -- 94
2019-10-22 06:00:00 6.1 4 Nordeste 10 Nordeste 0 -- -- 93
2019-10-22 05:00:00 6 4 Este 17 Nordeste 0 -- -- 92
2019-10-22 04:00:00 5.8 4 Este 13 Este 0 -- -- 94
2019-10-22 03:00:00 5.3 2 Este 4 Sudeste 0 -- -- 95
2019-10-22 02:00:00 5 0 Calma 8 Norte 0 -- -- 95
2019-10-22 01:00:00 4.5 2 Norte 5 Norte 0 -- -- 94
2019-10-22 00:00:00 5.1 2 Sudeste 6 Nordeste 0 -- -- 91
2019-10-21 23:00:00 6.3 0 Calma 8 Norte 0 -- -- 88
2019-10-21 22:00:00 6.9 3 Noroeste 6 Oeste 0 -- -- 90
2019-10-21 21:00:00 7.7 2 Noroeste 8 Sudoeste 0 -- -- 87
2019-10-21 20:00:00 8.8 3 Noroeste 8 Oeste 0 -- -- 84
2019-10-21 19:00:00 10.4 3 Oeste 12 Nordeste 0 -- -- 72
2019-10-21 18:00:00 11.5 3 Sur 9 Nordeste 0 -- -- 67
2019-10-21 17:00:00 12.3 3 Nordeste 25 Este 0 -- -- 64
2019-10-21 16:00:00 14.1 9 Este 16 Este 0 -- -- 56
2019-10-21 15:00:00 12.1 4 Sudoeste 10 Sudoeste 0 -- -- 78
2019-10-21 14:00:00 9.4 2 Este 8 Este 0 -- -- 84
2019-10-21 13:00:00 7.4 5 Este 13 Este 0 -- -- 91
2019-10-21 12:00:00 6.6 6 Este 12 Este 0 -- -- 100
2019-10-21 11:00:00 4.9 3 Sur 5 Sudeste 0 -- -- 100
2019-10-21 10:00:00 3.6 2 Este 6 Sudeste 0 -- -- 100
2019-10-21 09:00:00 2.8 0 Calma 4 Nordeste 0 -- -- 100
2019-10-21 08:00:00 2.7 2 Nordeste 5 Nordeste 0 -- -- 100
2019-10-21 07:00:00 2.5 0 Calma 4 Este 0 -- -- 100
2019-10-21 06:00:00 2.3 0 Calma 4 Nordeste 0 -- -- 99
2019-10-21 05:00:00 2.5 0 Calma 3 Nordeste 0 -- -- 98
2019-10-21 04:00:00 3 0 Calma 6 Nordeste 0 -- -- 98
2019-10-21 03:00:00 3.6 2 Este 5 Nordeste 0 -- -- 98
2019-10-21 02:00:00 4.1 0 Calma 8 Norte 0 -- -- 97
2019-10-21 01:00:00 4.7 0 Calma 5 Noroeste 0 -- -- 95
2019-10-21 00:00:00 5.7 3 Noroeste 8 Nordeste 0 -- -- 95
2019-10-20 23:00:00 6.8 3 Noroeste 8 Norte 0.2 -- -- 94
2019-10-20 22:00:00 8 2 Norte 23 Oeste 0.2 -- -- 93
2019-10-20 21:00:00 8.8 2 Oeste 9 Este 0 -- -- 97
2019-10-20 20:00:00 9.2 3 Noroeste 8 Oeste 0 -- -- 96
2019-10-20 19:00:00 9.7 4 Noroeste 27 Este 0 -- -- 95
2019-10-20 18:00:00 10.1 4 Nordeste 14 Norte 0 -- -- 94
2019-10-20 17:00:00 10.3 3 Sur 31 Nordeste 0.2 -- -- 96
2019-10-20 16:00:00 10.1 13 Este 32 Oeste 3.2 -- -- 94
2019-10-20 15:00:00 10.5 9 Oeste 22 Sudoeste 3 -- -- 93
2019-10-20 14:00:00 11 3 Oeste 25 Oeste 2.2 -- -- 93
2019-10-20 13:00:00 12.2 3 Oeste 23 Oeste 0.8 -- -- 92
2019-10-20 12:00:00 11.6 6 Noroeste 19 Oeste 1.2 -- -- 93
2019-10-20 11:00:00 12.3 3 Norte 10 Oeste 2.6 -- -- 96
2019-10-20 10:00:00 12 3 Norte 10 Noroeste 1.8 -- -- 98
2019-10-20 09:00:00 11.3 4 Norte 10 Norte 1 -- -- 98
2019-10-20 08:00:00 11.2 3 Nordeste 8 Oeste 8 -- -- 97
2019-10-20 07:00:00 11.3 4 Norte 21 Noroeste 1.4 -- -- 96
2019-10-20 06:00:00 10.9 5 Noroeste 13 Norte 0.2 -- -- 96
2019-10-20 05:00:00 10.8 3 Sudoeste 10 Norte 0.6 -- -- 95
2019-10-20 04:00:00 11.2 5 Norte 10 Nordeste 1 -- -- 94
2019-10-20 03:00:00 12.1 3 Noroeste 9 Oeste 0 -- -- 84
2019-10-20 02:00:00 11.5 3 Norte 8 Noroeste 0 -- -- 81
2019-10-20 01:00:00 11.6 2 Este 6 Oeste 0 -- -- 80
2019-10-20 00:00:00 11.7 0 Calma 5 Nordeste 0 -- -- 78
2019-10-19 23:00:00 11.7 2 Noroeste 5 Norte 0 -- -- 76
2019-10-19 22:00:00 11.8 0 Calma 6 Norte 0 -- -- 73
2019-10-19 21:00:00 11.8 2 Norte 8 Norte 0 -- -- 71
2019-10-19 20:00:00 13.3 0 Calma 11 Norte 0 -- -- 62
2019-10-19 19:00:00 16.1 6 Oeste 30 Oeste 0 -- -- 51
2019-10-19 18:00:00 17.5 13 Oeste 32 Oeste 0 -- -- 51
2019-10-19 17:00:00 17.5 7 Oeste 32 Oeste 0 -- -- 52
2019-10-19 16:00:00 17.8 14 Oeste 35 Oeste 0 -- -- 50
2019-10-19 15:00:00 18.4 10 Sudoeste 25 Oeste 0 -- -- 49
2019-10-19 14:00:00 16.8 12 Oeste 31 Oeste 0 -- -- 57
2019-10-19 13:00:00 15.7 6 Sudoeste 14 Sudoeste 0 -- -- 66
2019-10-19 12:00:00 12.6 4 Oeste 9 Oeste 0 -- -- 82
2019-10-19 11:00:00 10.1 0 Calma 6 Nordeste 0 -- -- 94
2019-10-19 10:00:00 9 0 Calma 4 Sudeste 0 -- -- 98
2019-10-19 09:00:00 8.2 0 Calma 4 Oeste 0 -- -- 98
2019-10-19 08:00:00 7.8 3 Oeste 7 Oeste 0 -- -- 97
2019-10-19 07:00:00 8 3 Norte 5 Norte 0 -- -- 96
2019-10-19 06:00:00 8.5 0 Calma 10 Noroeste 0 -- -- 95
2019-10-19 05:00:00 8.8 0 Calma 10 Noroeste 0 -- -- 94
2019-10-19 04:00:00 9.5 2 Sur 8 Noroeste 0 -- -- 91
2019-10-19 03:00:00 10.5 4 Norte 11 Noroeste 0 -- -- 88
2019-10-19 02:00:00 10.9 0 Calma 6 Norte 0 -- -- 87
2019-10-19 01:00:00 10.6 0 Calma 3 Sudoeste 0 -- -- 86
2019-10-19 00:00:00 10 2 Oeste 3 Oeste 0 -- -- 86
2019-10-18 23:00:00 10.1 0 Calma 9 Norte 0 -- -- 84
2019-10-18 22:00:00 11.2 2 Oeste 6 Oeste 0 -- -- 78
2019-10-18 21:00:00 13.4 2 Oeste 8 Oeste 0 -- -- 71
2019-10-18 20:00:00 14.8 3 Noroeste 8 Noroeste 0 -- -- 67
2019-10-18 19:00:00 15.6 4 Noroeste 10 Oeste 0 -- -- 65
2019-10-18 18:00:00 17 6 Oeste 19 Oeste 0 -- -- 59
2019-10-18 17:00:00 17.5 12 Oeste 23 Oeste 0 -- -- 58
2019-10-18 16:00:00 19.5 8 Oeste 25 Oeste 0 -- -- 55
2019-10-18 15:00:00 18.2 9 Oeste 22 Oeste 0 -- -- 56
2019-10-18 14:00:00 17.2 2 Este 6 Este 0 -- -- 56
2019-10-18 13:00:00 13.2 3 Sudeste 6 Sudeste 0 -- -- 67
2019-10-18 12:00:00 10.6 2 Este 8 Sur 0 -- -- 76
2019-10-18 11:00:00 7.9 7 Este 21 Este 0 -- -- 87
2019-10-18 10:00:00 6.2 3 Sudeste 7 Este 0 -- -- 95
2019-10-18 09:00:00 5.1 0 Calma 6 Este 0 -- -- 97
2019-10-18 08:00:00 4.8 3 Sur 10 Este 0 -- -- 96
2019-10-18 07:00:00 4.5 2 Este 4 Nordeste 0 -- -- 96
2019-10-18 06:00:00 4.3 0 Calma 4 Nordeste 0 -- -- 96
2019-10-18 05:00:00 4.3 0 Calma 4 Este 0 -- -- 96
2019-10-18 04:00:00 4.1 2 Noroeste 5 Nordeste 0 -- -- 95
2019-10-18 03:00:00 4.3 3 Sudeste 5 Sudeste 0 -- -- 93
2019-10-18 02:00:00 5.3 3 Nordeste 4 Este 0 -- -- 91
2019-10-18 01:00:00 6.2 0 Calma 5 Norte 0 -- -- 88
2019-10-18 00:00:00 7.3 0 Calma 5 Nordeste 0 -- -- 84
2019-10-17 23:00:00 8.8 0 Calma 8 Oeste 0 -- -- 80
2019-10-17 22:00:00 10.1 0 Calma 9 Norte 0 -- -- 75
2019-10-17 21:00:00 11.7 0 Calma 10 Norte 0 -- -- 67
2019-10-17 20:00:00 14.1 3 Noroeste 14 Oeste 0 -- -- 57
2019-10-17 19:00:00 16.1 5 Oeste 22 Sudoeste 0 -- -- 51
2019-10-17 18:00:00 17.7 10 Oeste 26 Oeste 0 -- -- 48
2019-10-17 17:00:00 18.6 11 Oeste 32 Oeste 0 -- -- 42
2019-10-17 16:00:00 20.4 9 Oeste 35 Oeste 0 -- -- 37
2019-10-17 15:00:00 20.3 13 Oeste 30 Oeste 0 -- -- 37
2019-10-17 14:00:00 19.5 14 Oeste 30 Oeste 0 -- -- 41
2019-10-17 13:00:00 16.8 7 Oeste 15 Oeste 0 -- -- 53
2019-10-17 12:00:00 12.4 6 Oeste 13 Oeste 0 -- -- 70
2019-10-17 11:00:00 7.4 4 Sur 10 Sudeste 0 -- -- 91
2019-10-17 10:00:00 4.1 3 Sudeste 6 Sudeste 0 -- -- 100
2019-10-17 09:00:00 2.7 3 Este 4 Este 0 -- -- 99
2019-10-17 08:00:00 2.7 0 Calma 5 Este 0 -- -- 99
2019-10-17 07:00:00 2.7 0 Calma 5 Este 0 -- -- 98
2019-10-17 06:00:00 2.9 0 Calma 3 Sur 0 -- -- 97
2019-10-17 05:00:00 3.4 2 Nordeste 5 Norte 0 -- -- 96
2019-10-17 04:00:00 4 0 Calma 5 Nordeste 0 -- -- 95
2019-10-17 03:00:00 4.5 0 Calma 6 Sudeste 0 -- -- 95
2019-10-17 02:00:00 5 2 Nordeste 5 Nordeste 0 -- -- 94
2019-10-17 01:00:00 5.8 3 Norte 8 Nordeste 0 -- -- 92
2019-10-17 00:00:00 6.5 0 Calma 4 Norte 0 -- -- 89
2019-10-16 23:00:00 7.3 2 Nordeste 7 Nordeste 0 -- -- 87
2019-10-16 22:00:00 8.4 0 Calma 4 Norte 0 -- -- 82
2019-10-16 21:00:00 9.7 0 Calma 4 Sudoeste 0 -- -- 77
2019-10-16 20:00:00 11.3 2 Noroeste 8 Norte 0 -- -- 71
2019-10-16 19:00:00 14.1 4 Oeste 16 Oeste 0 -- -- 58
2019-10-16 18:00:00 15.7 6 Oeste 26 Sudoeste 0 -- -- 52
2019-10-16 17:00:00 17.7 8 Sudoeste 24 Sudoeste 0 -- -- 48
2019-10-16 16:00:00 17.6 8 Oeste 26 Oeste 0 -- -- 47
2019-10-16 15:00:00 17.7 9 Oeste 30 Oeste 0 -- -- 46
2019-10-16 14:00:00 16.5 13 Oeste 31 Oeste 0 -- -- 48
2019-10-16 13:00:00 15 15 Oeste 33 Oeste 0 -- -- 51
2019-10-16 12:00:00 11.3 5 Oeste 11 Sur 0 -- -- 69
2019-10-16 11:00:00 7.6 4 Sudeste 13 Este 0 -- -- 86
2019-10-16 10:00:00 3.7 3 Sudeste 5 Sur 0 -- -- 100
2019-10-16 09:00:00 1.9 2 Este 4 Este 0 -- -- 99
2019-10-16 08:00:00 1.4 0 Calma 4 Nordeste 0 -- -- 97
2019-10-16 07:00:00 1.8 0 Calma 4 Nordeste 0 -- -- 97
2019-10-16 06:00:00 2.2 0 Calma 4 Nordeste 0 -- -- 97
2019-10-16 05:00:00 2.5 0 Calma 4 Sur 0 -- -- 96
2019-10-16 04:00:00 2.7 0 Calma 4 Norte 0 -- -- 95
2019-10-16 03:00:00 3.4 0 Calma 4 Sudeste 0 -- -- 94
2019-10-16 02:00:00 3.9 0 Calma 3 Nordeste 0 -- -- 91
2019-10-16 01:00:00 4.6 0 Calma 4 Norte 0 -- -- 90
2019-10-16 00:00:00 5.4 0 Calma 4 Noroeste 0 -- -- 85
2019-10-15 23:00:00 6.3 0 Calma 5 Oeste 0 -- -- 83
2019-10-15 22:00:00 7.6 3 Este 7 Norte 0 -- -- 79
2019-10-15 21:00:00 8.9 3 Oeste 5 Nordeste 0 -- -- 73
2019-10-15 20:00:00 10.9 2 Oeste 13 Oeste 0 -- -- 64
2019-10-15 19:00:00 13.2 3 Oeste 18 Oeste 0 -- -- 55
2019-10-15 18:00:00 15.2 9 Sudoeste 22 Sudoeste 0 -- -- 43
2019-10-15 17:00:00 17.3 9 Sudoeste 23 Sudoeste 0 -- -- 38
2019-10-15 16:00:00 17.7 7 Sudoeste 26 Sudoeste 0 -- -- 41
2019-10-15 15:00:00 16.8 14 Sudoeste 26 Sudoeste 0 -- -- 42
2019-10-15 14:00:00 16 9 Oeste 22 Noroeste 0 -- -- 47
2019-10-15 13:00:00 14.3 7 Sudoeste 14 Oeste 0 -- -- 63
2019-10-15 12:00:00 11.6 4 Oeste 11 Oeste 0 -- -- 69
2019-10-15 11:00:00 9.7 4 Sur 10 Sur 0 -- -- 84
2019-10-15 10:00:00 7.7 3 Este 13 Nordeste 0 -- -- 95
2019-10-15 09:00:00 6.8 2 Noroeste 7 Norte 0 -- -- 97
2019-10-15 08:00:00 6.5 3 Oeste 8 Oeste 0 -- -- 95
2019-10-15 07:00:00 7.7 5 Oeste 10 Sudoeste 0 -- -- 91
2019-10-15 06:00:00 8.9 4 Noroeste 15 Oeste 0 -- -- 93
2019-10-15 05:00:00 9.6 3 Noroeste 14 Oeste 0 -- -- 93
2019-10-15 04:00:00 10.4 5 Oeste 14 Sudoeste 0 -- -- 96
2019-10-15 03:00:00 10.8 2 Noroeste 9 Oeste 0.6 -- -- 95
2019-10-15 02:00:00 10.8 3 Norte 13 Sudoeste 1.8 -- -- 96
2019-10-15 01:00:00 11.3 0 Calma 11 Sur 0.4 -- -- 96
2019-10-15 00:00:00 11.8 4 Sudoeste 13 Noroeste 2.2 -- -- 96
2019-10-14 23:00:00 12.2 9 Oeste 23 Oeste 6 -- -- 95
2019-10-14 22:00:00 12.9 4 Nordeste 14 Nordeste 0.4 -- -- 89
2019-10-14 21:00:00 12.3 3 Este 10 Noroeste 0 -- -- 95
2019-10-14 20:00:00 12.4 7 Este 23 Nordeste 1 -- -- 94
2019-10-14 19:00:00 13.1 4 Oeste 16 Este 1 -- -- 92
2019-10-14 18:00:00 13.9 3 Sudeste 11 Oeste 2.6 -- -- 88
2019-10-14 17:00:00 16.3 5 Sudoeste 23 Oeste 1 -- -- 77
2019-10-14 16:00:00 17.9 12 Oeste 28 Oeste 0 -- -- 63
2019-10-14 15:00:00 17.8 11 Oeste 41 Noroeste 0 -- -- 66
2019-10-14 14:00:00 24.2 12 Sudoeste 36 Sur 0 -- -- 36
2019-10-14 13:00:00 22 6 Oeste 20 Oeste 0 -- -- 47
2019-10-14 12:00:00 17.2 6 Oeste 12 Este 0 -- -- 67
2019-10-14 11:00:00 12 4 Sudeste 11 Sudeste 0 -- -- 88
2019-10-14 10:00:00 9.8 3 Nordeste 5 Nordeste 0 -- -- 96
2019-10-14 09:00:00 8.9 3 Este 15 Nordeste 0 -- -- 95
2019-10-14 08:00:00 9.1 0 Calma 6 Oeste 0 -- -- 95
2019-10-14 07:00:00 8.2 2 Sudoeste 10 Este 0 -- -- 94
2019-10-14 06:00:00 8.9 6 Oeste 10 Oeste 0 -- -- 96
2019-10-14 05:00:00 9.4 0 Calma 8 Norte 0 -- -- 89
2019-10-14 04:00:00 9.3 3 Oeste 5 Oeste 0 -- -- 90
2019-10-14 03:00:00 9.7 2 Oeste 5 Sudoeste 0 -- -- 90
2019-10-14 02:00:00 10.2 0 Calma 5 Oeste 0 -- -- 89
2019-10-14 01:00:00 10.8 2 Oeste 9 Oeste 0 -- -- 88
2019-10-14 00:00:00 11.6 2 Noroeste 6 Norte 0 -- -- 82